createdAt,value
2017-07-27T00:00:38.631Z,64.55
2017-07-27T00:03:06.035Z,65.31
2017-07-27T00:05:33.426Z,65.04
2017-07-27T00:08:00.836Z,64.98
2017-07-27T00:10:28.238Z,65.24
2017-07-27T00:12:55.639Z,65.02
2017-07-27T00:15:23.035Z,65.26
2017-07-27T00:17:50.455Z,65.34
2017-07-27T00:20:17.851Z,65.35
2017-07-27T00:22:45.255Z,65.49
2017-07-27T00:25:12.654Z,66.08
2017-07-27T00:27:40.061Z,66.09
2017-07-27T00:30:07.466Z,66.28
2017-07-27T00:32:34.862Z,66.35
2017-07-27T00:35:02.254Z,66.21
2017-07-27T00:37:29.663Z,66.18
2017-07-27T00:39:57.055Z,66.69
2017-07-27T00:42:24.471Z,66.22
2017-07-27T00:44:51.861Z,67.13
2017-07-27T00:47:19.256Z,66.62
2017-07-27T00:49:46.664Z,66.33
2017-07-27T00:52:14.053Z,66.60
2017-07-27T00:54:41.459Z,66.55
2017-07-27T00:57:08.855Z,66.43
2017-07-27T00:59:36.255Z,66.45
2017-07-27T01:02:03.651Z,66.55
2017-07-27T01:04:31.054Z,66.34
2017-07-27T01:06:58.450Z,66.20
2017-07-27T01:09:25.850Z,66.47
2017-07-27T01:11:53.250Z,66.69
2017-07-27T01:14:20.654Z,66.41
2017-07-27T01:16:48.618Z,66.23
2017-07-27T01:19:16.015Z,66.22
2017-07-27T01:21:43.415Z,66.75
2017-07-27T01:24:10.818Z,67.59
2017-07-27T01:26:38.209Z,68.02
2017-07-27T01:29:05.613Z,68.19
2017-07-27T01:31:33.334Z,68.13
2017-07-27T01:34:00.730Z,68.33
2017-07-27T01:36:28.118Z,67.71
2017-07-27T01:38:55.522Z,67.72
2017-07-27T01:41:22.914Z,67.82
2017-07-27T01:43:50.318Z,67.92
2017-07-27T01:46:17.715Z,67.97
2017-07-27T01:48:45.122Z,67.58
2017-07-27T01:51:12.510Z,68.04
2017-07-27T01:53:39.934Z,67.73
2017-07-27T01:56:07.328Z,67.99
2017-07-27T01:58:34.741Z,67.88
2017-07-27T02:01:02.133Z,67.81
2017-07-27T02:03:29.523Z,67.77
2017-07-27T02:05:56.922Z,68.05
2017-07-27T02:08:24.314Z,67.77
2017-07-27T02:10:51.718Z,67.88
2017-07-27T02:13:19.119Z,67.96
2017-07-27T02:15:46.532Z,67.71
2017-07-27T02:18:13.930Z,68.11
2017-07-27T02:20:41.347Z,67.74
2017-07-27T02:23:08.736Z,67.83
2017-07-27T02:25:36.132Z,67.49
2017-07-27T02:28:03.524Z,67.78
2017-07-27T02:30:30.919Z,67.96
2017-07-27T02:32:58.308Z,67.84
2017-07-27T02:35:25.975Z,67.80
2017-07-27T02:37:53.359Z,68.10
2017-07-27T02:40:20.762Z,67.82
2017-07-27T02:42:48.154Z,67.98
2017-07-27T02:45:15.556Z,67.98
2017-07-27T02:47:42.942Z,67.86
2017-07-27T02:50:10.348Z,67.77
2017-07-27T02:52:37.726Z,68.72
2017-07-27T02:55:05.162Z,68.41
2017-07-27T02:57:32.778Z,68.23
2017-07-27T03:00:00.171Z,68.49
2017-07-27T03:02:27.559Z,68.15
2017-07-27T03:04:54.947Z,68.12
2017-07-27T03:07:22.334Z,68.15
2017-07-27T03:09:49.739Z,67.86
2017-07-27T03:12:17.129Z,68.35
2017-07-27T03:14:44.531Z,68.14
2017-07-27T03:17:11.917Z,68.09
2017-07-27T03:19:39.302Z,68.03
2017-07-27T03:22:06.698Z,68.09
2017-07-27T03:24:34.090Z,67.93
2017-07-27T03:27:01.490Z,68.31
2017-07-27T03:29:28.887Z,68.19
2017-07-27T03:31:56.295Z,68.55
2017-07-27T03:34:23.727Z,68.01
2017-07-27T03:36:51.118Z,67.94
2017-07-27T03:39:18.501Z,67.85
2017-07-27T03:41:45.908Z,68.37
2017-07-27T03:44:13.302Z,68.43
2017-07-27T03:46:40.699Z,68.86
2017-07-27T03:49:08.082Z,68.94
2017-07-27T03:51:35.478Z,69.14
2017-07-27T03:54:02.883Z,70.42
2017-07-27T03:56:30.279Z,70.49
2017-07-27T03:58:57.663Z,70.71
2017-07-27T04:01:25.070Z,70.54
2017-07-27T04:03:52.459Z,70.50
2017-07-27T04:06:20.134Z,70.71
2017-07-27T04:08:47.523Z,70.69
2017-07-27T04:11:14.927Z,70.79
2017-07-27T04:13:42.319Z,71.27
2017-07-27T04:16:09.718Z,71.08
2017-07-27T04:18:37.102Z,71.37
2017-07-27T04:21:04.507Z,70.73
2017-07-27T04:23:31.894Z,70.74
2017-07-27T04:25:59.290Z,70.90
2017-07-27T04:28:26.698Z,70.88
2017-07-27T04:30:54.119Z,71.10
2017-07-27T04:33:21.545Z,70.93
2017-07-27T04:35:48.934Z,71.37
2017-07-27T04:38:16.326Z,70.99
2017-07-27T04:40:43.722Z,70.94
2017-07-27T04:43:11.123Z,71.05
2017-07-27T04:45:38.511Z,71.31
2017-07-27T04:48:05.907Z,71.40
2017-07-27T04:50:33.303Z,71.39
2017-07-27T04:53:00.730Z,71.50
2017-07-27T04:55:28.118Z,71.48
2017-07-27T04:58:00.398Z,71.71
2017-07-27T05:00:27.830Z,71.74
2017-07-27T05:02:55.298Z,71.96
2017-07-27T05:05:22.727Z,71.81
2017-07-27T05:07:50.171Z,71.56
2017-07-27T05:10:17.559Z,71.93
2017-07-27T05:12:44.963Z,71.63
2017-07-27T05:15:12.351Z,72.20
2017-07-27T05:17:39.751Z,72.08
2017-07-27T05:22:57.610Z,72.67
2017-07-27T05:25:25.006Z,72.45
2017-07-27T05:27:52.399Z,73.47
2017-07-27T05:30:19.786Z,74.00
2017-07-27T05:32:47.325Z,73.50
2017-07-27T05:35:14.763Z,74.61
2017-07-27T05:37:42.164Z,75.18
2017-07-27T05:40:09.774Z,75.00
2017-07-27T05:42:37.158Z,74.52
2017-07-27T05:45:04.556Z,75.01
2017-07-27T05:47:31.958Z,75.07
2017-07-27T05:49:59.439Z,75.17
2017-07-27T05:52:26.928Z,75.20
2017-07-27T05:54:54.298Z,74.80
2017-07-27T05:57:21.703Z,76.96
2017-07-27T05:59:49.095Z,77.26
2017-07-27T06:02:16.502Z,77.68
2017-07-27T06:04:44.027Z,78.50
2017-07-27T06:07:11.730Z,77.21
2017-07-27T06:09:39.391Z,77.16
2017-07-27T06:12:06.851Z,76.32
2017-07-27T06:14:34.247Z,77.44
2017-07-27T06:17:01.644Z,76.51
2017-07-27T06:19:29.073Z,77.57
2017-07-27T06:21:56.471Z,77.48
2017-07-27T06:24:24.092Z,78.58
2017-07-27T06:26:51.572Z,78.38
2017-07-27T06:29:18.964Z,78.66
2017-07-27T06:31:46.350Z,78.71
2017-07-27T06:34:13.742Z,78.21
2017-07-27T06:36:41.132Z,78.35
2017-07-27T06:39:08.522Z,79.17
2017-07-27T06:41:35.906Z,78.73
2017-07-27T06:44:03.306Z,78.63
2017-07-27T06:48:57.384Z,79.42
2017-07-27T06:51:24.766Z,79.87
2017-07-27T06:56:19.119Z,80.83
2017-07-27T06:58:46.535Z,79.94
2017-07-27T07:01:13.922Z,79.89
2017-07-27T07:03:41.319Z,79.93
2017-07-27T07:06:08.715Z,80.33
2017-07-27T07:08:36.116Z,80.26
2017-07-27T07:11:03.502Z,79.85
2017-07-27T07:13:30.906Z,79.96
2017-07-27T07:15:58.295Z,80.34
2017-07-27T07:18:25.694Z,80.58
2017-07-27T07:20:53.090Z,81.00
2017-07-27T07:23:20.478Z,80.89
2017-07-27T07:25:47.900Z,80.52
2017-07-27T07:28:15.305Z,80.14
2017-07-27T07:30:42.704Z,80.48
2017-07-27T07:33:10.094Z,80.20
2017-07-27T07:35:37.482Z,79.81
2017-07-27T07:38:04.875Z,79.33
2017-07-27T07:40:32.274Z,79.79
2017-07-27T07:42:59.659Z,79.33
2017-07-27T07:45:27.063Z,79.04
2017-07-27T07:47:54.445Z,79.26
2017-07-27T07:50:21.859Z,79.71
2017-07-27T07:52:49.255Z,79.42
2017-07-27T07:55:16.654Z,79.46
2017-07-27T07:57:44.038Z,79.53
2017-07-27T08:00:11.663Z,79.30
2017-07-27T08:02:39.054Z,79.05
2017-07-27T08:05:06.454Z,78.73
2017-07-27T08:07:33.852Z,78.49
2017-07-27T08:10:13.131Z,78.77
2017-07-27T08:12:40.519Z,78.81
2017-07-27T08:15:07.910Z,78.76
2017-07-27T08:17:35.307Z,78.92
2017-07-27T08:20:02.698Z,78.73
2017-07-27T08:22:30.098Z,78.58
2017-07-27T08:24:57.495Z,78.56
2017-07-27T08:27:24.895Z,79.10
2017-07-27T08:29:52.303Z,79.14
2017-07-27T08:32:19.687Z,79.65
2017-07-27T08:34:47.090Z,78.74
2017-07-27T08:37:14.479Z,78.42
2017-07-27T08:39:41.899Z,79.52
2017-07-27T08:42:09.523Z,81.02
2017-07-27T08:44:36.936Z,79.95
2017-07-27T08:47:04.329Z,78.65
2017-07-27T08:49:31.710Z,76.79
2017-07-27T08:51:59.104Z,76.88
2017-07-27T08:54:26.491Z,76.28
2017-07-27T08:56:53.895Z,76.55
2017-07-27T08:59:21.283Z,76.48
2017-07-27T09:01:48.678Z,75.30
2017-07-27T09:04:16.058Z,73.45
2017-07-27T09:06:43.463Z,75.27
2017-07-27T09:09:10.834Z,74.98
2017-07-27T09:11:38.226Z,73.90
2017-07-27T09:14:05.616Z,73.90
2017-07-27T09:16:33.011Z,74.47
2017-07-27T09:19:00.400Z,73.87
2017-07-27T09:21:27.782Z,73.12
2017-07-27T09:23:55.163Z,74.06
2017-07-27T09:26:22.560Z,73.07
2017-07-27T09:28:49.965Z,72.34
2017-07-27T09:31:17.355Z,72.33
2017-07-27T09:33:44.743Z,73.20
2017-07-27T09:36:12.406Z,72.96
2017-07-27T09:38:39.795Z,73.01
2017-07-27T09:41:07.197Z,72.59
2017-07-27T09:43:34.578Z,72.47
2017-07-27T09:46:01.959Z,72.36
2017-07-27T09:48:29.374Z,72.59
2017-07-27T09:50:56.758Z,72.27
2017-07-27T09:53:24.149Z,72.73
2017-07-27T09:55:51.531Z,71.34
2017-07-27T09:58:18.927Z,70.87
2017-07-27T10:00:46.306Z,69.71
2017-07-27T10:03:13.707Z,69.90
2017-07-27T10:05:41.091Z,69.30
2017-07-27T10:08:08.515Z,70.54
2017-07-27T10:10:35.902Z,69.85
2017-07-27T10:13:03.326Z,69.97
2017-07-27T10:15:30.706Z,69.03
2017-07-27T10:17:58.351Z,68.63
2017-07-27T10:20:25.735Z,68.18
2017-07-27T10:22:53.188Z,67.76
2017-07-27T10:25:20.558Z,67.36
2017-07-27T10:27:47.951Z,67.99
2017-07-27T10:30:15.337Z,68.83
2017-07-27T10:32:42.726Z,67.93
2017-07-27T10:35:10.587Z,66.30
2017-07-27T10:37:37.970Z,65.10
2017-07-27T10:40:05.351Z,65.16
2017-07-27T10:42:32.742Z,65.12
2017-07-27T10:45:00.122Z,65.35
2017-07-27T10:47:27.517Z,64.90
2017-07-27T10:49:54.894Z,63.98
2017-07-27T10:52:22.283Z,65.05
2017-07-27T10:54:49.663Z,63.70
2017-07-27T10:57:17.054Z,61.62
2017-07-27T10:59:44.462Z,60.65
2017-07-27T11:02:11.847Z,60.42
2017-07-27T11:04:39.265Z,60.64
2017-07-27T11:07:06.639Z,60.59
2017-07-27T11:09:34.251Z,60.96
2017-07-27T11:12:01.661Z,61.52
2017-07-27T11:14:29.046Z,60.73
2017-07-27T11:16:56.431Z,60.20
2017-07-27T11:19:23.824Z,59.88
2017-07-27T11:24:33.051Z,59.15
2017-07-27T11:27:00.426Z,59.19
2017-07-27T11:29:27.822Z,60.40
2017-07-27T11:31:55.212Z,58.74
2017-07-27T11:34:22.607Z,59.30
2017-07-27T11:36:49.999Z,58.12
2017-07-27T11:39:17.382Z,59.28
2017-07-27T11:41:44.762Z,59.10
2017-07-27T11:44:12.150Z,58.77
2017-07-27T11:46:39.539Z,59.13
2017-07-27T11:49:06.984Z,57.59
2017-07-27T11:51:34.384Z,57.27
2017-07-27T11:54:01.998Z,56.80
2017-07-27T11:56:29.597Z,56.57
2017-07-27T11:58:56.995Z,57.18
2017-07-27T12:01:24.379Z,58.01
2017-07-27T12:03:51.770Z,57.82
2017-07-27T12:06:19.154Z,56.45
2017-07-27T12:08:46.551Z,56.20
2017-07-27T12:11:13.938Z,56.35
2017-07-27T12:13:41.326Z,56.71
2017-07-27T12:16:08.707Z,56.34
2017-07-27T12:18:36.111Z,55.46
2017-07-27T12:21:03.527Z,54.41
2017-07-27T12:23:30.919Z,54.24
2017-07-27T12:25:58.317Z,53.17
2017-07-27T12:28:25.691Z,52.32
2017-07-27T12:30:53.087Z,53.59
2017-07-27T12:33:20.475Z,53.58
2017-07-27T12:35:47.867Z,55.26
2017-07-27T12:38:15.254Z,55.22
2017-07-27T12:40:42.654Z,53.66
2017-07-27T12:43:10.030Z,52.54
2017-07-27T12:45:37.419Z,53.19
2017-07-27T12:48:04.811Z,55.25
2017-07-27T12:50:32.190Z,54.23
2017-07-27T12:52:59.583Z,53.96
2017-07-27T12:55:27.238Z,54.11
2017-07-27T12:57:54.647Z,53.08
2017-07-27T13:00:22.023Z,53.44
2017-07-27T13:02:49.410Z,53.37
2017-07-27T13:05:16.803Z,53.51
2017-07-27T13:07:44.187Z,53.85
2017-07-27T13:10:11.574Z,53.91
2017-07-27T13:12:38.967Z,53.65
2017-07-27T13:15:06.376Z,53.73
2017-07-27T13:17:33.760Z,52.05
2017-07-27T13:20:01.147Z,52.24
2017-07-27T13:22:28.526Z,52.84
2017-07-27T13:24:55.939Z,53.51
2017-07-27T13:27:23.318Z,54.05
2017-07-27T13:29:50.918Z,53.17
2017-07-27T13:32:18.303Z,53.58
2017-07-27T13:34:45.690Z,53.31
2017-07-27T13:37:13.084Z,53.71
2017-07-27T13:39:40.455Z,52.54
2017-07-27T13:42:07.842Z,52.73
2017-07-27T13:44:35.228Z,53.16
2017-07-27T13:47:02.621Z,53.43
2017-07-27T13:49:30.008Z,53.61
2017-07-27T13:51:57.408Z,52.37
2017-07-27T13:54:24.800Z,52.51
2017-07-27T13:56:52.220Z,52.53
2017-07-27T13:59:19.616Z,52.54
2017-07-27T14:01:47.009Z,53.08
2017-07-27T14:04:14.397Z,52.10
2017-07-27T14:06:41.789Z,52.26
2017-07-27T14:09:09.178Z,52.16
2017-07-27T14:11:36.575Z,52.25
2017-07-27T14:14:03.962Z,51.90
2017-07-27T14:16:31.359Z,50.98
2017-07-27T14:18:59.030Z,52.29
2017-07-27T14:21:26.418Z,53.02
2017-07-27T14:23:54.020Z,51.27
2017-07-27T14:26:21.407Z,52.06
2017-07-27T14:28:48.810Z,52.07
2017-07-27T14:31:16.292Z,51.99
2017-07-27T14:33:43.685Z,52.61
2017-07-27T14:36:11.068Z,51.77
2017-07-27T14:38:38.582Z,51.84
2017-07-27T14:41:05.967Z,51.73
2017-07-27T14:43:33.362Z,52.04
2017-07-27T14:46:00.747Z,51.62
2017-07-27T14:48:28.138Z,50.35
2017-07-27T14:50:55.536Z,51.05
2017-07-27T14:53:22.926Z,50.21
2017-07-27T14:55:50.310Z,49.81
2017-07-27T14:58:17.919Z,50.14
2017-07-27T15:00:45.306Z,49.65
2017-07-27T15:03:12.750Z,49.03
2017-07-27T15:05:40.128Z,49.70
2017-07-27T15:08:07.559Z,49.62
2017-07-27T15:10:34.935Z,49.76
2017-07-27T15:13:02.335Z,50.46
2017-07-27T15:15:29.721Z,50.85
2017-07-27T15:17:57.103Z,50.79
2017-07-27T15:20:24.499Z,49.63
2017-07-27T15:22:53.264Z,49.51
2017-07-27T15:25:20.838Z,48.81
2017-07-27T15:27:48.232Z,48.28
2017-07-27T15:30:15.610Z,48.38
2017-07-27T15:32:43.014Z,48.13
2017-07-27T15:35:10.400Z,48.05
2017-07-27T15:37:37.786Z,46.76
2017-07-27T15:40:05.184Z,47.09
2017-07-27T15:42:32.574Z,46.89
2017-07-27T15:44:59.962Z,47.23
2017-07-27T15:47:27.598Z,47.31
2017-07-27T15:49:54.982Z,47.22
2017-07-27T15:52:22.386Z,47.37
2017-07-27T15:54:49.819Z,46.96
2017-07-27T15:57:17.198Z,46.24
2017-07-27T15:59:44.701Z,45.86
2017-07-27T16:02:12.078Z,45.80
2017-07-27T16:04:39.471Z,47.31
2017-07-27T16:07:06.855Z,46.68
2017-07-27T16:12:24.891Z,46.55
2017-07-27T16:14:52.298Z,47.54
2017-07-27T16:17:19.680Z,46.48
2017-07-27T16:19:47.060Z,47.03
2017-07-27T16:22:14.446Z,47.55
2017-07-27T16:24:42.062Z,45.62
2017-07-27T16:27:09.464Z,45.77
2017-07-27T16:29:36.838Z,46.06
2017-07-27T16:34:54.625Z,45.42
2017-07-27T16:37:22.006Z,45.82
2017-07-27T16:39:51.295Z,46.11
2017-07-27T16:42:18.749Z,46.47
2017-07-27T16:44:46.138Z,46.98
2017-07-27T16:47:13.524Z,45.55
2017-07-27T16:49:40.910Z,46.27
2017-07-27T16:52:08.295Z,44.41
2017-07-27T16:54:35.682Z,44.70
2017-07-27T16:57:03.062Z,45.06
2017-07-27T16:59:30.452Z,44.66
2017-07-27T17:01:57.835Z,45.16
2017-07-27T17:04:25.222Z,44.71
2017-07-27T17:06:52.609Z,44.69
2017-07-27T17:11:53.790Z,44.92
2017-07-27T17:14:21.179Z,44.21
2017-07-27T17:16:48.562Z,44.77
2017-07-27T17:19:15.955Z,44.56
2017-07-27T17:21:43.336Z,44.62
2017-07-27T17:24:10.735Z,43.74
2017-07-27T17:26:38.123Z,44.52
2017-07-27T17:29:05.530Z,45.07
2017-07-27T17:31:32.914Z,44.87
2017-07-27T17:34:00.312Z,44.70
2017-07-27T17:36:27.694Z,44.92
2017-07-27T17:38:55.084Z,45.37
2017-07-27T17:41:22.471Z,44.83
2017-07-27T17:43:49.847Z,45.26
2017-07-27T17:46:17.230Z,45.69
2017-07-27T17:48:44.611Z,45.87
2017-07-27T17:51:12.055Z,45.87
2017-07-27T17:53:39.435Z,45.83
2017-07-27T17:56:06.818Z,46.50
2017-07-27T17:58:34.197Z,46.06
2017-07-27T18:01:01.590Z,46.72
2017-07-27T18:03:28.966Z,46.71
2017-07-27T18:05:56.360Z,46.18
2017-07-27T18:08:23.746Z,46.66
2017-07-27T18:10:51.130Z,47.08
2017-07-27T18:13:18.510Z,47.16
2017-07-27T18:15:45.898Z,47.08
2017-07-27T18:18:13.278Z,47.07
2017-07-27T18:20:40.665Z,47.40
2017-07-27T18:23:08.050Z,47.29
2017-07-27T18:25:35.434Z,47.35
2017-07-27T18:28:02.824Z,47.30
2017-07-27T18:30:30.211Z,47.23
2017-07-27T18:32:57.599Z,47.72
2017-07-27T18:35:24.991Z,47.73
2017-07-27T18:37:52.381Z,47.93
2017-07-27T18:40:19.774Z,47.76
2017-07-27T18:42:47.146Z,47.98
2017-07-27T18:45:14.550Z,48.15
2017-07-27T18:47:41.940Z,48.05
2017-07-27T18:50:09.326Z,47.71
2017-07-27T18:52:37.002Z,47.75
2017-07-27T18:55:04.413Z,48.11
2017-07-27T18:57:31.810Z,47.91
2017-07-27T18:59:59.190Z,47.49
2017-07-27T19:02:31.421Z,47.78
2017-07-27T19:04:58.801Z,47.94
2017-07-27T19:07:26.190Z,47.58
2017-07-27T19:09:53.564Z,47.58
2017-07-27T19:12:20.951Z,47.92
2017-07-27T19:14:48.334Z,48.11
2017-07-27T19:17:15.722Z,47.81
2017-07-27T19:19:43.114Z,48.11
2017-07-27T19:22:10.510Z,48.55
2017-07-27T19:24:37.886Z,49.20
2017-07-27T19:27:05.295Z,51.38
2017-07-27T19:29:32.706Z,51.39
2017-07-27T19:32:00.098Z,51.40
2017-07-27T19:34:27.699Z,51.33
2017-07-27T19:36:55.082Z,51.62
2017-07-27T19:39:22.489Z,51.82
2017-07-27T19:41:49.870Z,52.09
2017-07-27T19:44:17.251Z,52.37
2017-07-27T19:46:44.648Z,52.02
2017-07-27T19:49:12.034Z,51.97
2017-07-27T19:51:39.427Z,51.79
2017-07-27T19:54:06.832Z,52.14
2017-07-27T19:56:34.210Z,52.36
2017-07-27T19:59:01.854Z,52.60
2017-07-27T20:01:29.242Z,52.76
2017-07-27T20:03:56.942Z,52.67
2017-07-27T20:06:24.331Z,52.99
2017-07-27T20:08:51.727Z,53.54
2017-07-27T20:11:19.112Z,53.73
2017-07-27T20:13:46.504Z,53.95
2017-07-27T20:16:13.892Z,54.16
2017-07-27T20:21:15.082Z,54.39
2017-07-27T20:23:42.523Z,54.50
2017-07-27T20:26:09.988Z,54.67
2017-07-27T20:28:37.462Z,55.07
2017-07-27T20:31:05.143Z,55.05
2017-07-27T20:33:32.674Z,55.31
2017-07-27T20:36:00.110Z,55.51
2017-07-27T20:38:27.530Z,55.45
2017-07-27T20:40:54.928Z,55.74
2017-07-27T20:43:22.315Z,56.23
2017-07-27T20:45:49.694Z,56.34
2017-07-27T20:48:17.130Z,56.72
2017-07-27T20:50:44.509Z,56.80
2017-07-27T20:53:12.650Z,56.82
2017-07-27T20:55:41.117Z,56.74
2017-07-27T20:58:08.521Z,56.73
2017-07-27T21:00:35.912Z,56.92
2017-07-27T21:03:03.298Z,56.64
2017-07-27T21:05:30.678Z,57.33
2017-07-27T21:07:58.077Z,57.55
2017-07-27T21:10:25.459Z,57.89
2017-07-27T21:12:52.858Z,58.83
2017-07-27T21:15:20.247Z,58.64
2017-07-27T21:17:47.636Z,58.86
2017-07-27T21:20:15.022Z,58.53
2017-07-27T21:22:42.561Z,58.29
2017-07-27T21:25:09.985Z,58.79
2017-07-27T21:27:37.627Z,59.00
2017-07-27T21:30:05.025Z,58.53
2017-07-27T21:32:32.415Z,58.75
2017-07-27T21:34:59.807Z,58.72
2017-07-27T21:37:27.183Z,58.41
2017-07-27T21:39:54.594Z,58.30
2017-07-27T21:42:21.971Z,58.34
2017-07-27T21:44:49.359Z,58.71
2017-07-27T21:47:16.749Z,58.64
2017-07-27T21:49:44.135Z,58.23
2017-07-27T21:52:11.523Z,58.34
2017-07-27T21:54:39.133Z,57.96
2017-07-27T21:57:06.510Z,57.89
2017-07-27T21:59:33.934Z,57.69
2017-07-27T22:02:01.324Z,57.62
2017-07-27T22:04:28.714Z,57.59
2017-07-27T22:06:56.102Z,57.58
2017-07-27T22:09:23.526Z,57.41
2017-07-27T22:11:50.914Z,57.65
2017-07-27T22:14:18.524Z,57.58
2017-07-27T22:16:45.915Z,56.98
2017-07-27T22:19:13.306Z,56.76
2017-07-27T22:21:40.699Z,56.72
2017-07-27T22:24:08.083Z,56.62
2017-07-27T22:26:35.470Z,56.49
2017-07-27T22:29:02.872Z,56.61
2017-07-27T22:31:30.270Z,56.58
2017-07-27T22:33:57.654Z,56.92
2017-07-27T22:36:25.058Z,57.12
2017-07-27T22:38:52.443Z,56.96
2017-07-27T22:41:19.843Z,57.26
2017-07-27T22:43:47.231Z,56.92
2017-07-27T22:46:14.631Z,56.80
2017-07-27T22:48:42.018Z,57.18
2017-07-27T22:51:09.416Z,57.14
2017-07-27T22:53:36.851Z,57.28
2017-07-27T22:56:04.267Z,57.64
2017-07-27T22:58:31.669Z,57.63
2017-07-27T23:00:59.058Z,57.66
2017-07-27T23:03:26.450Z,57.52
2017-07-27T23:05:53.846Z,57.42
2017-07-27T23:08:21.244Z,57.92
2017-07-27T23:10:48.634Z,58.15
2017-07-27T23:13:16.031Z,58.30
2017-07-27T23:15:44.291Z,58.26
2017-07-27T23:18:11.682Z,58.24
2017-07-27T23:20:39.086Z,58.83
2017-07-27T23:23:06.488Z,59.40
2017-07-27T23:25:33.878Z,59.67
2017-07-27T23:28:01.277Z,60.21
2017-07-27T23:30:28.679Z,60.85
2017-07-27T23:32:56.063Z,61.12
2017-07-27T23:35:23.479Z,61.71
2017-07-27T23:37:50.872Z,62.22
2017-07-27T23:40:18.570Z,62.92
2017-07-27T23:42:45.950Z,63.15
2017-07-27T23:45:13.338Z,63.51
2017-07-27T23:47:40.742Z,63.12
2017-07-27T23:50:08.127Z,62.82
2017-07-27T23:52:35.531Z,62.67
2017-07-27T23:55:02.922Z,62.57
2017-07-27T23:57:30.327Z,62.67
2017-07-27T23:59:58.007Z,62.73
